Time;durP1;ratioP1;P1;durP2;ratioP2;P2;SDS_P1;SDS_P2;PMS_P1;PMS_P2;Temp;Humidity;BMP_temperature;BMP_pressure;BME280_temperature;BME280_humidity;BME280_pressure;Samples;Min_cycle;Max_cycle;Signal;HPM_P1;HPM_P2
2022/06/29 00:01:31;;;;;;;5.72;2.28;;;15.90;99.90;;;;;;5140417;27;20050;-56
2022/06/29 00:03:57;;;;;;;7.55;2.20;;;15.90;99.90;;;;;;5140650;27;20179;-56
2022/06/29 00:06:23;;;;;;;6.57;2.78;;;15.90;99.90;;;;;;5089682;27;20133;-56
2022/06/29 00:08:49;;;;;;;5.38;2.70;;;15.90;99.90;;;;;;5119359;27;20066;-57
2022/06/29 00:11:15;;;;;;;4.65;2.83;;;15.80;99.90;;;;;;5105289;27;20054;-57
2022/06/29 00:13:41;;;;;;;6.80;2.95;;;15.80;99.90;;;;;;5113503;27;20062;-57
2022/06/29 00:16:07;;;;;;;6.35;3.05;;;15.80;99.90;;;;;;5096476;27;20043;-57
2022/06/29 00:18:33;;;;;;;7.05;2.65;;;15.70;99.90;;;;;;5085783;27;20051;-56
2022/06/29 00:20:59;;;;;;;4.72;2.75;;;15.70;99.90;;;;;;5121837;27;20049;-57
2022/06/29 00:23:25;;;;;;;7.18;3.40;;;15.70;99.90;;;;;;5123990;27;20454;-57
2022/06/29 00:25:51;;;;;;;6.55;2.80;;;15.70;99.90;;;;;;5101777;27;20043;-57
2022/06/29 00:28:17;;;;;;;8.70;2.67;;;15.60;99.90;;;;;;5149756;27;20130;-57
2022/06/29 00:30:44;;;;;;;5.28;2.40;;;15.60;99.90;;;;;;5139093;27;20043;-57
2022/06/29 00:33:10;;;;;;;6.40;3.42;;;15.60;99.90;;;;;;5119869;27;20477;-57
2022/06/29 00:35:36;;;;;;;4.97;3.22;;;15.50;99.90;;;;;;5146486;27;20753;-56
2022/06/29 00:38:02;;;;;;;7.43;3.17;;;15.40;99.90;;;;;;5140897;27;20316;-57
2022/06/29 00:40:28;;;;;;;4.13;3.08;;;15.40;99.90;;;;;;5110325;27;20043;-57
2022/06/29 00:42:54;;;;;;;5.13;3.03;;;15.40;99.90;;;;;;5122153;27;20051;-57
2022/06/29 00:45:20;;;;;;;6.25;3.25;;;15.30;99.90;;;;;;5121081;27;20069;-58
2022/06/29 00:47:46;;;;;;;7.82;3.50;;;15.20;99.90;;;;;;5126081;27;20482;-55
2022/06/29 00:50:14;;;;;;;7.10;3.50;;;15.30;99.90;;;;;;5112605;27;20042;-55
2022/06/29 00:52:42;;;;;;;8.93;3.55;;;15.20;99.90;;;;;;5104334;27;20179;-57
2022/06/29 00:55:16;;;;;;;6.90;3.50;;;15.20;99.90;;;;;;5115915;27;20510;-57
2022/06/29 00:57:44;;;;;;;5.35;3.20;;;15.20;99.90;;;;;;5118731;27;20547;-57
2022/06/29 01:00:11;;;;;;;6.47;3.28;;;15.10;99.90;;;;;;5088070;27;20073;-57
2022/06/29 01:02:37;;;;;;;5.13;3.45;;;15.10;99.90;;;;;;5141626;27;20031;-57
2022/06/29 01:05:05;;;;;;;5.95;3.55;;;15.10;99.90;;;;;;5117045;27;20793;-56
2022/06/29 01:07:33;;;;;;;5.78;3.92;;;15.10;99.90;;;;;;5149648;27;20517;-57
2022/06/29 01:10:00;;;;;;;8.40;4.28;;;15.00;99.90;;;;;;5115327;27;20050;-57
2022/06/29 01:12:26;;;;;;;6.90;3.85;;;15.00;99.90;;;;;;5089136;27;20049;-57
2022/06/29 01:14:53;;;;;;;6.68;4.38;;;15.00;99.90;;;;;;5114446;27;20043;-56
2022/06/29 01:17:21;;;;;;;6.60;3.80;;;14.90;99.90;;;;;;5149214;27;20552;-57
2022/06/29 01:19:47;;;;;;;6.68;3.35;;;15.00;99.90;;;;;;5121011;27;20057;-58
2022/06/29 01:22:15;;;;;;;6.10;3.78;;;14.90;99.90;;;;;;5114438;27;20042;-57
2022/06/29 01:24:46;;;;;;;6.35;3.75;;;14.90;99.90;;;;;;5139884;27;20046;-56
2022/06/29 01:27:13;;;;;;;9.45;3.67;;;14.90;99.90;;;;;;5138760;27;20046;-57
2022/06/29 01:29:40;;;;;;;5.45;3.55;;;14.90;99.90;;;;;;5132117;27;20596;-57
2022/06/29 01:32:07;;;;;;;5.70;4.20;;;14.90;99.90;;;;;;5115685;27;20057;-56
2022/06/29 01:34:34;;;;;;;5.47;3.80;;;14.90;99.90;;;;;;5134194;27;20508;-56
2022/06/29 01:37:01;;;;;;;7.13;3.72;;;14.90;99.90;;;;;;5117572;27;20043;-56
2022/06/29 01:39:28;;;;;;;5.85;4.15;;;14.90;99.90;;;;;;5128174;27;20082;-57
2022/06/29 01:41:54;;;;;;;6.65;3.97;;;14.90;99.90;;;;;;5122405;27;20041;-52
2022/06/29 01:44:20;;;;;;;7.43;3.78;;;14.90;99.90;;;;;;5136574;27;20378;-56
2022/06/29 01:46:46;;;;;;;5.47;3.85;;;14.80;99.90;;;;;;5135988;27;20047;-59
2022/06/29 01:49:13;;;;;;;6.85;4.07;;;14.80;99.90;;;;;;5132244;27;20842;-57
2022/06/29 01:51:42;;;;;;;6.45;3.80;;;14.80;99.90;;;;;;5136479;27;20671;-56
2022/06/29 01:54:08;;;;;;;10.10;3.80;;;14.90;99.90;;;;;;5118192;27;20057;-54
2022/06/29 01:56:35;;;;;;;8.57;4.25;;;14.90;99.90;;;;;;5136845;27;20334;-56
2022/06/29 01:59:01;;;;;;;5.47;3.72;;;14.90;99.90;;;;;;5117866;27;20046;-54
2022/06/29 02:01:27;;;;;;;8.32;3.33;;;14.90;99.90;;;;;;5153525;27;20046;-56
2022/06/29 02:03:53;;;;;;;5.68;3.85;;;14.90;99.90;;;;;;5112675;27;20078;-56
2022/06/29 02:06:23;;;;;;;7.15;3.85;;;14.90;99.90;;;;;;5138566;27;20505;-56
2022/06/29 02:08:49;;;;;;;6.38;4.10;;;14.80;99.90;;;;;;5131630;27;20092;-56
2022/06/29 02:11:15;;;;;;;4.82;4.00;;;14.90;99.90;;;;;;5120224;27;20043;-58
2022/06/29 02:13:41;;;;;;;5.47;4.20;;;14.90;99.90;;;;;;5144650;27;20047;-56
2022/06/29 02:16:07;;;;;;;6.50;4.15;;;14.90;99.90;;;;;;5135301;27;20099;-55
2022/06/29 02:18:33;;;;;;;5.78;4.15;;;14.90;99.90;;;;;;5130617;27;20404;-54
2022/06/29 02:20:59;;;;;;;5.28;4.43;;;14.90;99.90;;;;;;5137288;27;20209;-56
2022/06/29 02:23:26;;;;;;;8.07;4.60;;;14.90;99.90;;;;;;5133142;27;20106;-57
2022/06/29 02:25:52;;;;;;;7.40;4.72;;;14.90;99.90;;;;;;5118789;27;20042;-54
2022/06/29 02:28:18;;;;;;;6.85;4.72;;;14.90;99.90;;;;;;5118812;27;20464;-58
2022/06/29 02:36:13;;;;;;;6.57;4.57;;;14.90;99.90;;;;;;5131592;27;20454;-57
2022/06/29 02:38:39;;;;;;;9.90;5.60;;;14.90;99.90;;;;;;5151488;27;20452;-58
2022/06/29 02:41:06;;;;;;;7.85;4.10;;;14.90;99.90;;;;;;5100596;27;20138;-57
2022/06/29 02:43:32;;;;;;;6.28;4.50;;;15.00;99.90;;;;;;5132849;27;20038;-58
2022/06/29 02:45:58;;;;;;;6.28;4.55;;;15.00;99.90;;;;;;5118089;27;20039;-57
2022/06/29 02:48:25;;;;;;;6.93;4.57;;;15.00;99.90;;;;;;5136479;27;20789;-57
2022/06/29 02:50:51;;;;;;;6.80;4.50;;;15.00;99.90;;;;;;5113654;27;20055;-58
2022/06/29 02:53:17;;;;;;;6.50;4.93;;;14.90;99.90;;;;;;5129827;27;20123;-58
2022/06/29 02:55:43;;;;;;;5.60;4.50;;;14.90;99.90;;;;;;5132076;27;20074;-56
2022/06/29 02:58:10;;;;;;;9.23;5.05;;;14.90;99.90;;;;;;5121110;27;20516;-56
2022/06/29 03:00:37;;;;;;;5.68;5.18;;;14.90;99.90;;;;;;5098036;27;20050;-56
2022/06/29 03:03:03;;;;;;;7.00;4.80;;;14.90;99.90;;;;;;5118714;27;20035;-55
2022/06/29 03:05:29;;;;;;;6.57;4.55;;;14.90;99.90;;;;;;5108630;27;20120;-56
2022/06/29 03:07:55;;;;;;;8.52;5.95;;;14.90;99.90;;;;;;5150670;27;20047;-57
2022/06/29 03:10:21;;;;;;;8.57;4.93;;;14.80;99.90;;;;;;5104671;27;20046;-58
2022/06/29 03:12:47;;;;;;;7.22;5.30;;;14.80;99.90;;;;;;5113825;27;20441;-56
2022/06/29 03:15:13;;;;;;;12.38;5.80;;;14.80;99.90;;;;;;5135766;27;20513;-58
2022/06/29 03:17:39;;;;;;;6.15;5.20;;;14.70;99.90;;;;;;5133330;27;20081;-55
2022/06/29 03:20:06;;;;;;;7.13;5.78;;;14.70;99.90;;;;;;5086283;27;20405;-58
2022/06/29 03:22:33;;;;;;;7.05;5.47;;;14.70;99.90;;;;;;5139436;27;20045;-57
2022/06/29 03:24:59;;;;;;;7.03;5.78;;;14.60;99.90;;;;;;5128801;27;20092;-58
2022/06/29 03:27:25;;;;;;;5.68;4.97;;;14.60;99.90;;;;;;5082707;27;20051;-58
2022/06/29 03:29:52;;;;;;;7.93;5.57;;;14.60;99.90;;;;;;5092566;27;20046;-56
2022/06/29 03:32:18;;;;;;;6.22;5.38;;;14.50;99.90;;;;;;5113570;27;20050;-55
2022/06/29 03:34:44;;;;;;;7.45;5.72;;;14.50;99.90;;;;;;5128331;27;20046;-58
2022/06/29 03:37:10;;;;;;;7.28;5.50;;;14.50;99.90;;;;;;5125569;27;20122;-58
2022/06/29 03:39:36;;;;;;;6.90;5.65;;;14.50;99.90;;;;;;5115141;27;20082;-56
2022/06/29 03:42:03;;;;;;;6.93;5.57;;;14.50;99.90;;;;;;5101175;27;20057;-57
2022/06/29 03:44:29;;;;;;;9.13;5.65;;;14.50;99.90;;;;;;5133306;27;20477;-56
2022/06/29 03:46:55;;;;;;;6.25;5.60;;;14.50;99.90;;;;;;5155741;27;20057;-55
2022/06/29 03:49:21;;;;;;;8.65;5.45;;;14.40;99.90;;;;;;5115199;27;20051;-56
2022/06/29 03:51:47;;;;;;;7.22;5.22;;;14.40;99.90;;;;;;5112210;27;20051;-57
2022/06/29 03:54:13;;;;;;;9.45;5.55;;;14.50;99.90;;;;;;5126004;27;20055;-55
2022/06/29 03:56:40;;;;;;;7.72;5.80;;;14.40;99.90;;;;;;5113369;27;20488;-56
2022/06/29 03:59:06;;;;;;;5.95;4.90;;;14.40;99.90;;;;;;5137311;27;20049;-56
2022/06/29 04:01:32;;;;;;;5.63;5.10;;;14.50;99.90;;;;;;5112959;27;20588;-56
2022/06/29 04:03:58;;;;;;;7.72;5.28;;;14.50;99.90;;;;;;5134112;27;20392;-56
2022/06/29 04:06:24;;;;;;;6.65;5.35;;;14.50;99.90;;;;;;5137155;27;20064;-56
2022/06/29 04:08:50;;;;;;;6.43;5.32;;;14.50;99.90;;;;;;5099081;27;20047;-58
2022/06/29 04:14:01;;;;;;;7.40;5.38;;;14.70;99.90;;;;;;5139348;27;20154;-56
2022/06/29 04:16:27;;;;;;;6.65;5.30;;;14.70;99.90;;;;;;5130335;27;20051;-57
2022/06/29 04:18:53;;;;;;;7.28;5.18;;;14.80;99.90;;;;;;5112703;27;20664;-56
2022/06/29 04:21:19;;;;;;;6.32;5.32;;;14.80;99.90;;;;;;5135348;27;20046;-56
2022/06/29 04:23:45;;;;;;;6.43;5.03;;;14.90;99.90;;;;;;5130918;27;20046;-55
2022/06/29 04:26:11;;;;;;;5.70;5.00;;;14.90;99.90;;;;;;5139308;27;20047;-56
2022/06/29 04:28:37;;;;;;;9.77;5.75;;;15.00;99.90;;;;;;5118711;27;20035;-56
2022/06/29 04:31:03;;;;;;;6.63;5.20;;;15.00;99.90;;;;;;5107776;27;20108;-56
2022/06/29 04:33:29;;;;;;;7.93;5.20;;;15.10;99.90;;;;;;5132215;27;20051;-56
2022/06/29 04:35:55;;;;;;;7.32;5.32;;;15.10;99.90;;;;;;5103456;27;20044;-56
2022/06/29 04:38:22;;;;;;;6.43;5.28;;;15.20;99.90;;;;;;5109886;27;20057;-56
2022/06/29 04:40:48;;;;;;;5.85;4.80;;;15.20;99.90;;;;;;5127892;27;20397;-56
2022/06/29 04:43:14;;;;;;;6.95;5.28;;;15.30;99.90;;;;;;5146093;27;20043;-57
2022/06/29 04:48:25;;;;;;;9.27;5.60;;;15.40;99.90;;;;;;5131693;27;20188;-57
2022/06/29 04:50:51;;;;;;;5.88;4.75;;;15.40;99.90;;;;;;5131621;27;20054;-57
2022/06/29 04:53:17;;;;;;;8.65;5.10;;;15.50;99.90;;;;;;5128244;27;20049;-57
2022/06/29 04:55:43;;;;;;;6.25;5.18;;;15.50;99.90;;;;;;5112037;27;20078;-57
2022/06/29 04:58:09;;;;;;;8.93;6.03;;;15.60;99.90;;;;;;5137495;27;20042;-57
2022/06/29 05:00:35;;;;;;;5.90;5.28;;;15.60;99.90;;;;;;5135389;27;20050;-57
2022/06/29 05:03:01;;;;;;;6.90;5.47;;;15.70;99.90;;;;;;5110977;27;20084;-57
2022/06/29 05:05:27;;;;;;;7.30;5.72;;;15.80;99.90;;;;;;5140840;27;20039;-57
2022/06/29 05:07:53;;;;;;;6.40;5.35;;;15.90;99.90;;;;;;5132526;27;20486;-56
2022/06/29 05:10:20;;;;;;;6.72;5.47;;;16.00;99.90;;;;;;5148957;27;20054;-61
2022/06/29 05:12:46;;;;;;;5.30;4.70;;;16.30;99.90;;;;;;5138048;27;20046;-57
2022/06/29 05:15:12;;;;;;;6.95;5.18;;;16.70;99.90;;;;;;5111651;27;20603;-58
2022/06/29 05:17:39;;;;;;;7.28;4.90;;;17.10;99.90;;;;;;5136451;27;20047;-57
2022/06/29 05:20:08;;;;;;;6.57;4.50;;;17.50;99.90;;;;;;5133497;27;20039;-56
2022/06/29 05:22:35;;;;;;;5.03;4.53;;;17.80;99.90;;;;;;5145120;27;20051;-56
2022/06/29 05:25:02;;;;;;;7.00;4.30;;;17.90;99.90;;;;;;5116690;27;20042;-58
2022/06/29 05:27:28;;;;;;;6.88;4.53;;;18.10;99.90;;;;;;5101800;27;20607;-56
2022/06/29 05:29:54;;;;;;;7.20;4.18;;;18.00;99.90;;;;;;5130273;27;20167;-55
2022/06/29 05:32:21;;;;;;;5.05;3.95;;;18.20;99.90;;;;;;5129547;27;20054;-55
2022/06/29 05:34:47;;;;;;;6.07;4.45;;;18.20;99.90;;;;;;5111235;27;20054;-56
2022/06/29 05:37:16;;;;;;;5.28;4.13;;;18.50;99.90;;;;;;5102869;27;20046;-50
2022/06/29 05:39:44;;;;;;;5.78;4.25;;;18.70;99.90;;;;;;5143878;27;20046;-52
2022/06/29 05:42:12;;;;;;;9.63;8.38;;;18.80;99.90;;;;;;5111732;27;20045;-52
2022/06/29 05:44:41;;;;;;;6.28;4.47;;;18.90;99.90;;;;;;5122936;27;20038;-51
2022/06/29 05:47:08;;;;;;;5.18;3.78;;;19.00;99.90;;;;;;5109961;27;20055;-54
2022/06/29 05:49:36;;;;;;;5.97;4.07;;;19.30;99.90;;;;;;5135407;27;20509;-50
2022/06/29 05:52:03;;;;;;;5.45;4.25;;;19.40;99.90;;;;;;5117600;27;20461;-56
2022/06/29 05:54:29;;;;;;;6.82;4.13;;;19.60;99.90;;;;;;5136101;27;20059;-55
2022/06/29 05:56:55;;;;;;;8.00;4.18;;;19.60;99.90;;;;;;5114410;27;20043;-56
2022/06/29 05:59:21;;;;;;;5.55;4.13;;;19.80;99.90;;;;;;5102644;27;20103;-58
2022/06/29 06:01:47;;;;;;;5.47;3.70;;;19.80;99.90;;;;;;5133804;27;20046;-59
2022/06/29 06:04:14;;;;;;;7.70;3.70;;;19.90;99.90;;;;;;5118495;27;20066;-57
2022/06/29 06:06:40;;;;;;;4.90;3.58;;;20.00;99.90;;;;;;5115827;27;20805;-56
2022/06/29 06:09:06;;;;;;;6.18;3.38;;;20.30;99.90;;;;;;5124159;27;20137;-56
2022/06/29 06:11:33;;;;;;;6.60;3.60;;;20.50;99.90;;;;;;5118571;27;20517;-56
2022/06/29 06:13:59;;;;;;;5.25;3.45;;;20.60;99.90;;;;;;5112145;27;20042;-57
2022/06/29 06:16:25;;;;;;;6.13;3.45;;;20.70;99.90;;;;;;5094185;27;20051;-56
2022/06/29 06:18:51;;;;;;;5.40;3.40;;;20.70;99.90;;;;;;5105452;27;20498;-55
2022/06/29 06:21:17;;;;;;;5.25;3.25;;;20.90;99.90;;;;;;5127678;27;20040;-55
2022/06/29 06:23:44;;;;;;;7.38;3.35;;;21.10;99.90;;;;;;5126804;27;20058;-56
2022/06/29 06:26:10;;;;;;;4.07;2.42;;;21.40;99.90;;;;;;5130232;27;20042;-55
2022/06/29 06:28:36;;;;;;;6.82;2.80;;;21.40;99.90;;;;;;5091272;27;20409;-57
2022/06/29 06:31:02;;;;;;;6.10;3.50;;;21.40;99.90;;;;;;5107992;27;20509;-55
2022/06/29 06:33:28;;;;;;;4.38;2.97;;;21.40;99.90;;;;;;5095709;27;20061;-54
2022/06/29 06:35:55;;;;;;;5.88;3.33;;;21.30;99.90;;;;;;5098092;27;20093;-56
2022/06/29 06:38:21;;;;;;;5.30;3.03;;;21.40;99.90;;;;;;5134076;27;20046;-52
2022/06/29 06:43:54;;;;;;;5.85;2.88;;;21.80;99.90;;;;;;5076316;28;20039;-56
2022/06/29 06:46:21;;;;;;;4.60;2.90;;;22.10;99.90;;;;;;5060770;28;20612;-56
2022/06/29 06:48:50;;;;;;;5.68;3.22;;;22.20;99.90;;;;;;5110347;27;20793;-52
2022/06/29 06:51:20;;;;;;;6.63;2.80;;;22.50;99.90;;;;;;5116496;27;20135;-55
2022/06/29 06:53:47;;;;;;;4.50;2.60;;;22.70;99.90;;;;;;5117322;27;20059;-57
2022/06/29 06:56:16;;;;;;;4.50;2.33;;;22.80;99.90;;;;;;5113807;27;20050;-57
2022/06/29 06:58:43;;;;;;;4.80;2.33;;;22.80;99.90;;;;;;5094714;27;20062;-57
2022/06/29 07:01:12;;;;;;;6.00;2.22;;;23.10;99.90;;;;;;5128704;27;20042;-56
2022/06/29 07:03:38;;;;;;;4.65;2.50;;;23.10;99.90;;;;;;5116195;27;20047;-56
2022/06/29 07:06:06;;;;;;;4.28;2.35;;;23.30;99.90;;;;;;5131230;27;20050;-56
2022/06/29 07:08:33;;;;;;;4.63;2.13;;;23.60;99.90;;;;;;5101354;27;20105;-57
2022/06/29 07:11:00;;;;;;;7.32;5.15;;;23.60;99.90;;;;;;5111923;27;20118;-58
2022/06/29 07:13:27;;;;;;;5.15;2.10;;;23.50;99.90;;;;;;5128178;27;20410;-57
2022/06/29 07:15:54;;;;;;;4.13;2.05;;;23.60;99.90;;;;;;5089601;27;20047;-58
2022/06/29 07:18:21;;;;;;;4.55;2.10;;;23.70;99.90;;;;;;5112814;27;20442;-58
2022/06/29 07:20:48;;;;;;;3.58;1.83;;;23.90;99.90;;;;;;5110650;27;20051;-58
2022/06/29 07:23:14;;;;;;;3.28;1.80;;;23.90;99.90;;;;;;5130757;27;20031;-58
2022/06/29 07:25:41;;;;;;;3.97;2.13;;;23.80;99.90;;;;;;5141333;27;20078;-51
2022/06/29 07:28:08;;;;;;;3.50;2.10;;;23.90;99.90;;;;;;5118056;27;20540;-53
2022/06/29 07:30:34;;;;;;;3.67;1.80;;;24.20;99.90;;;;;;5150651;27;20401;-52
2022/06/29 07:33:00;;;;;;;5.47;1.95;;;24.20;99.90;;;;;;5129159;27;20805;-51
2022/06/29 07:35:26;;;;;;;5.53;2.03;;;24.30;99.90;;;;;;5133976;27;20410;-56
2022/06/29 07:37:53;;;;;;;4.45;1.83;;;24.60;99.90;;;;;;5109195;27;20457;-56
2022/06/29 07:40:20;;;;;;;3.90;1.90;;;24.60;99.90;;;;;;5136294;27;20167;-56
2022/06/29 07:42:46;;;;;;;5.25;2.13;;;24.80;99.90;;;;;;5122057;27;20043;-56
2022/06/29 07:45:13;;;;;;;4.63;2.28;;;25.00;99.90;;;;;;5133745;27;20073;-56
2022/06/29 07:47:40;;;;;;;5.55;1.73;;;25.10;99.90;;;;;;5132176;27;20039;-58
2022/06/29 07:50:06;;;;;;;2.67;1.73;;;25.20;98.40;;;;;;5117581;27;20050;-57
2022/06/29 07:52:33;;;;;;;4.60;2.00;;;25.30;98.60;;;;;;5119309;27;20043;-54
2022/06/29 07:55:01;;;;;;;5.50;2.53;;;25.20;97.10;;;;;;5110928;27;20043;-53
2022/06/29 07:57:27;;;;;;;2.95;1.70;;;25.20;95.90;;;;;;5113041;27;20047;-54
2022/06/29 07:59:53;;;;;;;5.18;2.15;;;25.60;96.80;;;;;;5111577;27;20088;-57
2022/06/29 08:02:19;;;;;;;3.75;2.00;;;25.90;94.00;;;;;;5131649;27;20430;-57
2022/06/29 08:04:45;;;;;;;12.48;9.32;;;25.80;94.70;;;;;;5108828;27;20055;-57
2022/06/29 08:07:11;;;;;;;7.28;5.10;;;25.90;94.50;;;;;;5134635;27;20125;-57
2022/06/29 08:09:37;;;;;;;5.57;2.17;;;26.10;94.20;;;;;;5117796;27;20062;-59
2022/06/29 08:12:04;;;;;;;4.75;1.90;;;26.30;96.40;;;;;;5124639;27;20050;-58
2022/06/29 08:14:30;;;;;;;4.20;1.90;;;26.00;95.60;;;;;;5131837;27;20244;-57
2022/06/29 08:16:56;;;;;;;5.40;2.05;;;25.60;96.70;;;;;;5094998;27;20063;-57
2022/06/29 08:19:23;;;;;;;5.70;1.70;;;25.50;96.20;;;;;;5097231;28;20463;-55
2022/06/29 08:21:49;;;;;;;3.60;1.70;;;25.80;95.90;;;;;;5078629;28;20503;-54
2022/06/29 08:24:15;;;;;;;5.15;3.03;;;26.30;98.50;;;;;;5084049;28;20047;-50
2022/06/29 08:26:41;;;;;;;6.47;1.80;;;26.50;96.60;;;;;;5079421;28;20056;-51
2022/06/29 08:29:07;;;;;;;4.85;1.80;;;26.50;93.10;;;;;;5095002;28;20513;-52
2022/06/29 08:31:34;;;;;;;3.55;1.63;;;26.50;94.30;;;;;;5077355;28;20418;-51
2022/06/29 08:34:04;;;;;;;4.82;1.50;;;26.60;93.40;;;;;;5076305;28;20138;-57
2022/06/29 08:36:33;;;;;;;5.28;2.15;;;26.60;86.80;;;;;;5093041;28;20078;-57
2022/06/29 08:39:01;;;;;;;4.07;1.60;;;26.90;87.40;;;;;;5086020;28;20126;-58
2022/06/29 08:41:29;;;;;;;2.40;1.13;;;27.00;78.10;;;;;;5090596;27;20052;-56
2022/06/29 08:44:03;;;;;;;1.98;1.17;;;27.30;81.20;;;;;;5087047;27;20046;-54
2022/06/29 08:46:29;;;;;;;4.03;2.30;;;27.50;74.50;;;;;;5095316;28;20043;-56
2022/06/29 08:48:56;;;;;;;3.05;1.40;;;27.20;75.60;;;;;;5073755;28;20477;-54
2022/06/29 08:51:24;;;;;;;2.10;1.30;;;27.40;71.50;;;;;;5088178;28;20104;-53
2022/06/29 08:53:51;;;;;;;2.70;1.50;;;27.50;72.00;;;;;;5086344;28;20047;-55
2022/06/29 08:56:19;;;;;;;3.13;1.58;;;27.60;71.10;;;;;;5076652;28;20770;-54
2022/06/29 08:58:51;;;;;;;4.00;1.30;;;27.30;70.00;;;;;;5053003;28;20560;-55
2022/06/29 09:01:18;;;;;;;3.63;1.65;;;27.30;70.30;;;;;;5068110;28;20047;-51
2022/06/29 09:03:45;;;;;;;7.03;2.80;;;27.30;68.40;;;;;;5093676;28;20061;-49
2022/06/29 09:06:11;;;;;;;3.42;1.48;;;27.40;67.70;;;;;;5089557;28;20119;-57
2022/06/29 09:08:37;;;;;;;3.88;2.10;;;27.50;67.20;;;;;;5087658;28;20388;-49
2022/06/29 09:11:23;;;;;;;2.83;1.30;;;27.90;63.40;;;;;;5086869;27;20047;-50
2022/06/29 09:14:16;;;;;;;6.32;3.85;;;28.40;65.20;;;;;;5086730;28;20062;-52
2022/06/29 09:16:53;;;;;;;3.25;1.70;;;28.60;66.10;;;;;;5091034;27;20063;-53
2022/06/29 09:19:21;;;;;;;4.20;3.13;;;28.80;63.10;;;;;;5096415;27;20370;-53
2022/06/29 09:21:50;;;;;;;3.42;1.48;;;28.80;58.00;;;;;;5087884;28;20040;-52
2022/06/29 09:24:18;;;;;;;2.40;1.52;;;29.10;61.10;;;;;;5085234;28;20135;-50
2022/06/29 09:26:50;;;;;;;2.65;1.75;;;29.20;58.50;;;;;;5086960;28;20119;-52
2022/06/29 09:29:27;;;;;;;3.08;1.60;;;29.00;56.00;;;;;;5092131;28;20070;-52
2022/06/29 09:32:04;;;;;;;2.42;1.60;;;28.80;56.40;;;;;;5092497;28;20506;-53
2022/06/29 09:34:34;;;;;;;3.20;1.70;;;28.80;55.10;;;;;;5097394;28;20524;-53
2022/06/29 09:37:02;;;;;;;7.65;6.85;;;28.70;54.30;;;;;;5084338;28;20487;-53
2022/06/29 09:39:54;;;;;;;5.13;2.95;;;28.80;55.40;;;;;;5088830;28;20393;-51
2022/06/29 09:42:26;;;;;;;1.83;1.20;;;29.20;55.80;;;;;;5098141;28;20043;-53
2022/06/29 09:44:52;;;;;;;2.33;1.63;;;29.40;54.50;;;;;;5073849;28;20052;-52
2022/06/29 09:47:21;;;;;;;3.92;1.85;;;29.30;54.20;;;;;;5074773;28;20051;-49
2022/06/29 09:49:50;;;;;;;2.63;1.50;;;28.90;53.90;;;;;;5086108;28;20063;-50
2022/06/29 09:52:16;;;;;;;4.68;1.60;;;29.10;55.00;;;;;;5084618;28;20623;-54
2022/06/29 09:54:59;;;;;;;5.90;1.80;;;29.40;55.00;;;;;;5093559;27;20302;-49
2022/06/29 09:57:29;;;;;;;2.75;1.83;;;30.00;57.50;;;;;;5072650;28;20044;-52
2022/06/29 10:02:54;;;;;;;5.03;1.70;;;29.10;55.10;;;;;;5071981;27;20040;-53
2022/06/29 10:05:22;;;;;;;3.03;1.38;;;28.70;55.30;;;;;;5092066;28;20379;-54
2022/06/29 10:07:51;;;;;;;4.50;1.63;;;28.40;56.80;;;;;;5078920;28;20669;-49
2022/06/29 10:10:23;;;;;;;3.38;1.65;;;28.20;57.70;;;;;;5086082;27;20044;-52
2022/06/29 10:16:00;;;;;;;2.50;1.65;;;28.20;60.50;;;;;;5095123;28;20138;-51
2022/06/29 10:18:34;;;;;;;3.03;1.50;;;28.30;65.00;;;;;;5090209;28;20455;-52
2022/06/29 10:21:00;;;;;;;3.22;1.85;;;28.40;62.40;;;;;;5085487;28;20074;-52
2022/06/29 10:23:48;;;;;;;3.25;1.90;;;29.00;66.40;;;;;;5092449;28;20047;-51
2022/06/29 10:26:35;;;;;;;3.83;1.98;;;29.30;60.40;;;;;;5091139;28;20122;-49
2022/06/29 10:29:08;;;;;;;5.63;1.75;;;29.00;59.40;;;;;;5084120;28;20040;-53
2022/06/29 10:31:56;;;;;;;4.93;3.00;;;29.60;61.10;;;;;;5095894;28;20533;-53
2022/06/29 10:34:31;;;;;;;3.65;2.17;;;29.90;59.20;;;;;;5099587;28;20075;-51
2022/06/29 10:37:07;;;;;;;3.75;2.10;;;30.30;58.40;;;;;;5087490;28;20096;-53
2022/06/29 10:39:45;;;;;;;29.20;26.60;;;30.90;53.10;;;;;;5092809;28;20401;-53
2022/06/29 10:45:13;;;;;;;3.73;2.23;;;31.40;53.90;;;;;;5080536;28;20148;-53
2022/06/29 10:47:44;;;;;;;3.10;1.80;;;30.90;53.20;;;;;;5068869;28;20864;-52
2022/06/29 10:50:21;;;;;;;3.55;1.75;;;31.20;52.60;;;;;;5075703;28;20188;-54
2022/06/29 10:52:48;;;;;;;4.65;2.13;;;30.70;50.70;;;;;;5084730;28;20559;-56
2022/06/29 10:55:15;;;;;;;2.55;1.90;;;30.20;53.70;;;;;;5082350;28;20104;-52
2022/06/29 10:57:45;;;;;;;2.38;1.88;;;30.40;55.20;;;;;;5093533;28;20044;-53
2022/06/29 11:00:17;;;;;;;3.75;2.30;;;30.60;53.80;;;;;;5095613;28;20112;-54
2022/06/29 11:02:47;;;;;;;3.28;1.75;;;30.60;51.10;;;;;;5095392;28;20154;-53
2022/06/29 11:05:14;;;;;;;4.65;2.20;;;31.00;52.70;;;;;;5089454;28;20082;-54
2022/06/29 11:13:25;;;;;;;4.43;2.13;;;31.50;50.80;;;;;;5092794;28;20040;-56
2022/06/29 11:15:53;;;;;;;4.82;2.20;;;31.10;50.50;;;;;;5081851;28;20067;-56
2022/06/29 11:18:23;;;;;;;7.70;6.25;;;31.00;51.00;;;;;;5092166;28;20043;-53
2022/06/29 11:20:51;;;;;;;4.97;1.85;;;30.60;50.90;;;;;;5103280;27;20091;-55
2022/06/29 11:23:27;;;;;;;3.72;2.53;;;30.80;54.00;;;;;;5075083;28;20040;-54
2022/06/29 11:25:56;;;;;;;7.22;6.50;;;30.20;50.50;;;;;;5089034;27;20506;-53
2022/06/29 11:28:42;;;;;;;5.18;2.17;;;30.10;51.80;;;;;;5093330;27;20560;-54
2022/06/29 11:31:12;;;;;;;4.03;2.28;;;30.10;53.10;;;;;;5080306;28;20043;-54
2022/06/29 11:33:45;;;;;;;5.40;3.58;;;30.10;52.50;;;;;;5101848;28;20052;-54
2022/06/29 11:36:16;;;;;;;5.68;2.40;;;30.10;52.60;;;;;;5090923;28;20063;-55
2022/06/29 11:38:54;;;;;;;4.45;3.10;;;30.00;53.00;;;;;;5094183;28;20063;-55
2022/06/29 11:43:03;;;;;;;4.60;2.47;;;30.10;54.00;;;;;;5096325;28;20486;-55
2022/06/29 11:44:27;;;;;;;3.95;2.40;;;30.20;55.40;;;;;;5097131;28;20563;-58
2022/06/29 11:46:55;;;;;;;4.18;2.70;;;30.40;58.70;;;;;;5093697;27;20127;-57
2022/06/29 11:49:38;;;;;;;3.35;2.53;;;30.20;56.10;;;;;;5063532;28;20052;-57
2022/06/29 11:52:13;;;;;;;4.15;2.75;;;30.70;56.40;;;;;;5097572;28;20039;-57
2022/06/29 11:54:49;;;;;;;4.65;3.08;;;31.00;55.80;;;;;;5098682;28;20066;-56
2022/06/29 11:57:17;;;;;;;4.93;2.22;;;31.30;54.50;;;;;;5097185;27;20066;-53
2022/06/29 11:59:47;;;;;;;7.35;6.60;;;31.50;55.10;;;;;;5087204;27;20039;-57
2022/06/29 12:02:16;;;;;;;4.38;2.70;;;32.00;55.80;;;;;;5052977;28;20043;-55
2022/06/29 12:04:46;;;;;;;4.10;2.90;;;31.90;54.40;;;;;;5090871;28;20052;-57
2022/06/29 12:07:16;;;;;;;8.05;7.20;;;32.50;58.10;;;;;;5095015;28;20035;-55
2022/06/29 12:09:43;;;;;;;4.23;3.07;;;32.70;58.30;;;;;;5092286;28;20052;-56
2022/06/29 12:12:11;;;;;;;12.15;10.77;;;32.30;55.40;;;;;;5077684;28;20047;-56
2022/06/29 12:14:39;;;;;;;3.88;2.88;;;32.50;56.00;;;;;;5090581;28;20051;-57
2022/06/29 12:17:06;;;;;;;8.05;7.25;;;32.60;53.40;;;;;;5096215;28;20064;-56
2022/06/29 12:19:32;;;;;;;11.07;8.55;;;32.70;53.40;;;;;;5085992;28;20036;-57
2022/06/29 12:21:59;;;;;;;5.50;3.67;;;33.00;53.50;;;;;;5090385;28;20044;-57
2022/06/29 12:24:26;;;;;;;9.63;8.00;;;32.50;52.80;;;;;;5114276;27;20057;-57
2022/06/29 12:26:53;;;;;;;4.30;2.70;;;32.70;51.80;;;;;;5070304;28;20086;-59
2022/06/29 12:29:19;;;;;;;20.73;18.52;;;33.00;53.10;;;;;;5094463;28;20043;-57
2022/06/29 12:31:46;;;;;;;6.45;4.05;;;32.60;50.70;;;;;;5078104;28;20071;-57
2022/06/29 12:34:16;;;;;;;4.43;4.00;;;32.60;50.90;;;;;;5050025;28;20526;-57
2022/06/29 12:36:42;;;;;;;4.25;2.97;;;32.30;50.50;;;;;;5091542;28;20541;-57
2022/06/29 12:39:09;;;;;;;9.43;8.52;;;32.30;51.30;;;;;;5065692;28;20429;-55
2022/06/29 12:41:36;;;;;;;5.30;3.15;;;32.20;50.80;;;;;;5094141;28;20077;-53
2022/06/29 12:44:04;;;;;;;6.90;5.57;;;32.50;52.40;;;;;;5085806;28;20040;-55
2022/06/29 12:46:31;;;;;;;7.55;4.07;;;32.60;50.90;;;;;;5093888;28;20108;-56
2022/06/29 12:48:58;;;;;;;6.28;4.70;;;32.90;51.90;;;;;;5089921;28;20055;-55
2022/06/29 12:51:24;;;;;;;5.88;3.58;;;32.50;50.60;;;;;;5085638;27;20047;-54
2022/06/29 12:53:51;;;;;;;6.78;4.00;;;32.80;51.30;;;;;;5074422;28;20044;-54
2022/06/29 12:56:17;;;;;;;7.18;3.28;;;32.90;50.70;;;;;;5097289;28;20040;-54
2022/06/29 12:58:43;;;;;;;6.55;3.53;;;32.50;50.30;;;;;;5086828;28;20585;-55
2022/06/29 13:01:10;;;;;;;5.57;4.03;;;32.70;49.70;;;;;;5090978;27;20128;-55
2022/06/29 13:03:37;;;;;;;7.65;3.72;;;32.80;48.40;;;;;;5092855;28;20048;-57
2022/06/29 13:06:03;;;;;;;5.40;3.72;;;32.60;48.40;;;;;;5070074;28;20051;-56
2022/06/29 13:08:29;;;;;;;6.00;3.60;;;32.30;49.80;;;;;;5099303;28;20410;-57
2022/06/29 13:10:56;;;;;;;4.95;3.60;;;32.50;50.30;;;;;;5088077;28;20047;-56
2022/06/29 13:13:22;;;;;;;4.97;3.97;;;32.10;49.90;;;;;;5090572;28;20036;-57
2022/06/29 13:15:48;;;;;;;5.63;4.15;;;31.90;51.10;;;;;;5088213;28;20181;-58
2022/06/29 13:18:15;;;;;;;8.00;7.18;;;32.10;51.70;;;;;;5092031;28;20395;-55